Time;durP1;ratioP1;P1;durP2;ratioP2;P2;SDS_P1;SDS_P2;PMS_P1;PMS_P2;Temp;Humidity;BMP_temperature;BMP_pressure;BME280_temperature;BME280_humidity;BME280_pressure;Samples;Min_cycle;Max_cycle;Signal;HPM_P1;HPM_P2
2021/06/11 00:00:09;;;;;;;2.20;2.00;;;23.40;52.50;;;;;;5011567;28;20489;-60
2021/06/11 00:02:35;;;;;;;2.08;1.88;;;23.40;52.50;;;;;;5011257;28;20426;-60
2021/06/11 00:05:00;;;;;;;2.40;2.03;;;23.40;52.40;;;;;;5011477;28;20476;-59
2021/06/11 00:07:26;;;;;;;2.40;2.20;;;23.40;52.50;;;;;;5011456;28;20484;-59
2021/06/11 00:09:52;;;;;;;2.50;1.90;;;23.40;52.50;;;;;;5011572;28;20388;-59
2021/06/11 00:12:17;;;;;;;2.00;1.80;;;23.40;52.50;;;;;;5011469;28;20404;-59
2021/06/11 00:14:43;;;;;;;2.60;2.00;;;23.40;52.50;;;;;;5010724;28;20396;-60
2021/06/11 00:17:10;;;;;;;2.30;2.10;;;23.40;52.50;;;;;;5010968;28;20450;-59
2021/06/11 00:19:36;;;;;;;2.83;2.08;;;23.40;52.50;;;;;;5011336;28;20388;-59
2021/06/11 00:22:03;;;;;;;2.40;1.95;;;23.40;52.60;;;;;;5015029;28;20447;-60
2021/06/11 00:24:29;;;;;;;2.08;1.70;;;23.40;52.50;;;;;;5015163;28;20389;-59
2021/06/11 00:26:55;;;;;;;2.53;1.80;;;23.40;52.50;;;;;;5013378;28;20916;-60
2021/06/11 00:29:21;;;;;;;1.90;1.70;;;23.40;52.50;;;;;;5014977;28;20420;-60
2021/06/11 00:31:46;;;;;;;2.35;2.05;;;23.40;52.60;;;;;;5015007;28;20404;-59
2021/06/11 00:34:12;;;;;;;2.25;2.05;;;23.30;52.50;;;;;;5014903;28;20392;-60
2021/06/11 00:36:38;;;;;;;2.10;1.90;;;23.30;52.50;;;;;;5014664;28;20471;-59
2021/06/11 00:39:04;;;;;;;2.40;2.20;;;23.30;52.50;;;;;;5013440;28;20401;-59
2021/06/11 00:41:29;;;;;;;2.15;1.95;;;23.30;52.50;;;;;;5014800;28;20428;-59
2021/06/11 00:43:55;;;;;;;2.10;1.88;;;23.30;52.50;;;;;;5014781;28;20746;-60
2021/06/11 00:46:21;;;;;;;2.97;2.05;;;23.30;52.50;;;;;;5014843;28;20420;-60
2021/06/11 00:48:46;;;;;;;2.30;2.10;;;23.30;52.50;;;;;;5014139;28;20389;-59
2021/06/11 00:51:12;;;;;;;2.13;1.92;;;23.30;52.60;;;;;;5014685;28;20377;-59
2021/06/11 00:53:38;;;;;;;2.30;2.10;;;23.30;52.50;;;;;;5015125;28;20432;-60
2021/06/11 00:56:04;;;;;;;3.35;2.22;;;23.30;52.60;;;;;;5014719;28;20907;-59
2021/06/11 00:58:30;;;;;;;2.47;2.28;;;23.30;52.50;;;;;;5013463;28;20441;-59
2021/06/11 01:00:56;;;;;;;2.10;1.80;;;23.30;52.50;;;;;;5014323;28;20440;-60
2021/06/11 01:03:21;;;;;;;2.27;2.07;;;23.30;52.50;;;;;;5014473;28;20460;-59
2021/06/11 01:05:47;;;;;;;2.38;2.15;;;23.30;52.60;;;;;;5014390;28;20381;-59
2021/06/11 01:08:15;;;;;;;2.30;1.90;;;23.30;52.60;;;;;;5014373;28;20749;-60
2021/06/11 01:10:43;;;;;;;2.42;2.10;;;23.20;52.50;;;;;;5014144;28;20381;-60
2021/06/11 01:13:10;;;;;;;2.53;2.08;;;23.20;52.50;;;;;;5014130;28;20389;-60
2021/06/11 01:15:36;;;;;;;2.40;2.20;;;23.20;52.50;;;;;;5014012;28;20397;-59
2021/06/11 01:18:02;;;;;;;2.15;1.95;;;23.20;52.50;;;;;;5014244;28;20746;-60
2021/06/11 01:20:28;;;;;;;2.63;2.10;;;23.20;52.50;;;;;;5014155;28;20393;-60
2021/06/11 01:23:31;;;;;;;2.20;2.00;;;23.20;52.40;;;;;;5013703;28;20483;-60
2021/06/11 01:26:23;;;;;;;2.20;2.00;;;23.20;52.50;;;;;;5014146;28;20389;-59
2021/06/11 01:28:52;;;;;;;2.55;2.00;;;23.20;52.60;;;;;;5012518;28;20881;-59
2021/06/11 01:31:19;;;;;;;2.10;1.80;;;23.20;52.60;;;;;;5012482;28;20480;-59
2021/06/11 01:33:50;;;;;;;2.67;2.25;;;23.20;52.50;;;;;;5012289;28;20839;-59
2021/06/11 01:36:20;;;;;;;2.22;1.90;;;23.20;52.50;;;;;;5013945;28;20404;-59
2021/06/11 01:38:48;;;;;;;2.70;2.10;;;23.20;52.50;;;;;;5013577;28;20405;-60
2021/06/11 01:41:16;;;;;;;2.50;2.30;;;23.10;52.40;;;;;;5013682;28;20471;-59
2021/06/11 01:43:43;;;;;;;2.70;2.00;;;23.20;52.60;;;;;;5013626;28;20504;-60
2021/06/11 01:46:11;;;;;;;2.70;2.13;;;23.20;52.50;;;;;;5013722;28;20397;-59
2021/06/11 01:48:40;;;;;;;2.20;2.00;;;23.10;53.00;;;;;;5013381;28;20397;-60
2021/06/11 01:51:08;;;;;;;2.50;2.30;;;23.10;52.30;;;;;;5013673;28;20381;-59
2021/06/11 01:53:36;;;;;;;2.50;2.20;;;23.10;52.40;;;;;;5013502;28;20471;-60
2021/06/11 01:56:02;;;;;;;2.25;2.05;;;23.10;52.30;;;;;;5013533;28;20400;-59
2021/06/11 01:58:29;;;;;;;2.20;2.00;;;23.10;52.40;;;;;;5013450;28;20442;-60
2021/06/11 02:00:55;;;;;;;2.20;2.00;;;23.10;52.30;;;;;;5012894;28;20415;-59
2021/06/11 02:03:23;;;;;;;2.50;2.20;;;23.10;52.40;;;;;;5013396;28;20393;-61
2021/06/11 02:05:49;;;;;;;2.45;2.03;;;23.10;52.30;;;;;;5012058;28;20405;-60
2021/06/11 02:08:16;;;;;;;2.22;2.00;;;23.10;52.40;;;;;;5013302;28;20393;-59
2021/06/11 02:10:43;;;;;;;2.40;2.13;;;23.10;52.40;;;;;;5012925;28;20388;-59
2021/06/11 02:13:09;;;;;;;2.40;2.15;;;23.10;52.40;;;;;;5012948;28;20911;-60
2021/06/11 02:15:35;;;;;;;2.22;2.00;;;23.10;52.50;;;;;;5012888;28;20385;-60
2021/06/11 02:18:03;;;;;;;2.30;1.98;;;23.10;52.50;;;;;;5012952;28;20399;-60
2021/06/11 02:20:30;;;;;;;2.90;1.90;;;23.10;51.90;;;;;;5012952;28;20800;-59
2021/06/11 02:22:56;;;;;;;2.40;2.10;;;23.10;52.50;;;;;;5012595;28;20455;-59
2021/06/11 02:25:25;;;;;;;2.00;1.80;;;23.10;52.40;;;;;;5013048;28;20491;-60
2021/06/11 02:27:52;;;;;;;2.27;2.00;;;23.10;52.50;;;;;;5012914;28;20421;-60
2021/06/11 02:30:19;;;;;;;2.30;2.10;;;23.10;52.40;;;;;;5012887;28;20812;-59
2021/06/11 02:32:46;;;;;;;2.13;1.92;;;23.10;52.40;;;;;;5012799;28;20385;-60
2021/06/11 02:35:18;;;;;;;2.20;2.00;;;23.30;52.60;;;;;;5012593;28;20467;-60
2021/06/11 02:37:45;;;;;;;2.20;1.92;;;23.00;52.40;;;;;;5012639;28;20480;-59
2021/06/11 02:40:11;;;;;;;2.30;2.10;;;23.10;52.40;;;;;;5012647;28;20836;-60
2021/06/11 02:42:39;;;;;;;2.85;2.25;;;23.00;52.40;;;;;;5012335;28;20504;-60
2021/06/11 02:45:11;;;;;;;2.45;2.13;;;23.00;52.40;;;;;;5012254;28;20413;-59
2021/06/11 02:48:02;;;;;;;2.38;2.00;;;23.00;52.20;;;;;;5010909;28;20411;-59
2021/06/11 02:50:35;;;;;;;2.50;2.08;;;23.00;52.40;;;;;;5012137;28;20408;-59
2021/06/11 02:53:02;;;;;;;2.55;2.05;;;23.00;52.30;;;;;;5012078;28;20388;-60
2021/06/11 02:55:29;;;;;;;2.30;2.10;;;23.00;52.50;;;;;;5012563;28;20477;-60
2021/06/11 02:58:04;;;;;;;2.13;1.90;;;23.00;52.20;;;;;;5012466;28;20396;-59
2021/06/11 03:00:32;;;;;;;2.20;2.00;;;23.00;52.30;;;;;;5012225;28;20432;-60
2021/06/11 03:03:17;;;;;;;2.30;2.00;;;23.00;52.40;;;;;;5010586;28;20490;-60
2021/06/11 03:05:44;;;;;;;2.40;2.00;;;23.00;52.40;;;;;;5010882;28;20789;-60
2021/06/11 03:08:12;;;;;;;2.30;2.10;;;23.00;52.40;;;;;;5012286;28;20393;-60
2021/06/11 03:10:44;;;;;;;2.10;1.90;;;23.00;52.40;;;;;;5012093;28;20397;-60
2021/06/11 03:13:11;;;;;;;2.17;1.95;;;23.00;52.30;;;;;;5012232;28;20397;-60
2021/06/11 03:15:37;;;;;;;2.38;2.00;;;23.00;52.50;;;;;;5012107;28;20412;-60
2021/06/11 03:18:09;;;;;;;2.22;2.03;;;23.00;52.40;;;;;;5011729;28;20411;-60
2021/06/11 03:20:39;;;;;;;2.30;2.10;;;23.00;52.30;;;;;;5011937;28;20903;-60
2021/06/11 03:23:10;;;;;;;2.10;1.85;;;22.90;52.20;;;;;;5011608;28;20407;-60
2021/06/11 03:25:46;;;;;;;2.38;2.00;;;22.90;52.20;;;;;;5011962;28;20424;-59
2021/06/11 03:28:28;;;;;;;2.42;2.00;;;22.90;52.30;;;;;;5012003;28;20443;-59
2021/06/11 03:30:58;;;;;;;2.37;2.10;;;22.90;52.20;;;;;;5011770;28;20468;-60
2021/06/11 03:33:31;;;;;;;2.70;2.10;;;22.90;52.20;;;;;;5011909;28;20397;-60
2021/06/11 03:36:03;;;;;;;2.15;1.95;;;22.90;52.30;;;;;;5011865;28;20923;-59
2021/06/11 03:38:31;;;;;;;2.40;1.90;;;22.90;52.20;;;;;;5011517;28;20409;-59
2021/06/11 03:40:57;;;;;;;2.30;2.10;;;22.90;52.10;;;;;;5011301;28;20570;-59
2021/06/11 03:43:26;;;;;;;2.22;2.03;;;22.90;52.10;;;;;;5011737;28;20405;-59
2021/06/11 03:45:53;;;;;;;2.30;1.90;;;22.90;52.20;;;;;;5011689;28;20443;-59
2021/06/11 03:48:20;;;;;;;2.17;1.98;;;22.90;52.20;;;;;;5011739;28;20392;-59
2021/06/11 03:50:49;;;;;;;2.30;2.03;;;22.90;52.10;;;;;;5011489;28;20397;-60
2021/06/11 03:53:18;;;;;;;2.50;2.10;;;22.90;52.20;;;;;;5011548;28;20397;-59
2021/06/11 03:55:47;;;;;;;2.13;1.90;;;22.90;52.30;;;;;;5013509;28;20393;-59
2021/06/11 03:58:30;;;;;;;2.22;2.00;;;22.90;52.10;;;;;;5014347;28;20484;-60
2021/06/11 04:00:58;;;;;;;2.30;2.10;;;22.90;52.20;;;;;;5014299;28;20412;-59
2021/06/11 04:03:24;;;;;;;2.20;2.00;;;22.90;52.20;;;;;;5014482;28;20408;-59
2021/06/11 04:06:00;;;;;;;2.28;2.08;;;22.90;52.20;;;;;;5014456;28;20860;-59
2021/06/11 04:08:33;;;;;;;2.40;2.20;;;22.90;52.20;;;;;;5015236;28;20757;-60
2021/06/11 04:10:59;;;;;;;2.35;2.15;;;22.80;52.10;;;;;;5015145;28;20877;-59
2021/06/11 04:13:51;;;;;;;2.53;2.10;;;22.80;52.20;;;;;;5015474;28;20381;-59
2021/06/11 04:16:41;;;;;;;2.30;2.10;;;22.80;52.10;;;;;;5015468;28;20385;-59
2021/06/11 04:19:11;;;;;;;2.90;2.30;;;22.80;52.10;;;;;;5014940;28;20405;-59
2021/06/11 04:21:38;;;;;;;2.53;2.33;;;22.80;52.70;;;;;;5014579;28;20881;-59
2021/06/11 04:24:09;;;;;;;2.53;2.33;;;22.80;52.20;;;;;;5015127;28;20474;-59
2021/06/11 04:26:38;;;;;;;2.42;2.22;;;22.80;52.30;;;;;;5015099;28;21050;-59
2021/06/11 04:29:08;;;;;;;2.45;2.25;;;22.80;52.30;;;;;;5014469;28;20434;-60
2021/06/11 04:31:34;;;;;;;2.40;2.10;;;22.80;52.20;;;;;;5014850;28;20510;-59
2021/06/11 04:34:00;;;;;;;2.50;2.17;;;22.80;52.20;;;;;;5014887;28;20488;-59
2021/06/11 04:36:28;;;;;;;2.40;2.20;;;22.80;52.10;;;;;;5014977;28;20377;-59
2021/06/11 04:39:06;;;;;;;2.65;2.20;;;22.80;52.20;;;;;;5014351;28;20397;-60
2021/06/11 04:41:32;;;;;;;2.35;2.15;;;22.80;52.20;;;;;;5014860;28;20416;-59
2021/06/11 04:43:59;;;;;;;2.30;2.10;;;22.80;52.10;;;;;;5014730;28;20734;-60
2021/06/11 04:46:25;;;;;;;2.50;2.20;;;22.80;52.00;;;;;;5014966;28;20393;-61
2021/06/11 04:48:52;;;;;;;2.15;1.95;;;22.80;52.20;;;;;;5014593;28;20423;-59
2021/06/11 04:51:18;;;;;;;2.53;2.20;;;22.80;52.10;;;;;;5014370;28;20392;-59
2021/06/11 04:53:44;;;;;;;2.93;2.20;;;22.80;52.30;;;;;;5014664;28;20388;-59
2021/06/11 04:56:11;;;;;;;2.80;2.20;;;22.80;52.00;;;;;;5014684;28;20393;-60
2021/06/11 04:58:38;;;;;;;2.53;2.10;;;22.80;52.10;;;;;;5014599;28;20436;-59
2021/06/11 05:01:05;;;;;;;2.40;2.10;;;22.80;52.20;;;;;;5014267;28;20404;-59
2021/06/11 05:03:32;;;;;;;2.65;1.90;;;22.80;52.40;;;;;;5015444;28;20811;-59
2021/06/11 05:05:57;;;;;;;2.73;2.17;;;22.80;52.70;;;;;;5032299;28;20860;-61
2021/06/11 05:08:23;;;;;;;3.58;2.05;;;22.80;53.40;;;;;;5031766;28;20482;-59
2021/06/11 05:10:50;;;;;;;3.17;2.00;;;22.80;53.80;;;;;;5032882;28;20403;-59
2021/06/11 05:13:15;;;;;;;3.60;2.20;;;22.80;53.90;;;;;;5031549;28;20395;-59
2021/06/11 05:15:41;;;;;;;3.77;2.07;;;22.80;53.60;;;;;;5033247;28;20396;-59
2021/06/11 05:18:07;;;;;;;4.50;2.13;;;22.80;54.00;;;;;;5032605;28;20403;-59
2021/06/11 05:20:34;;;;;;;4.30;2.28;;;22.80;53.70;;;;;;5033546;28;20395;-59
2021/06/11 05:23:00;;;;;;;4.35;2.65;;;22.80;53.70;;;;;;5033431;28;20973;-59
2021/06/11 05:25:26;;;;;;;3.25;2.40;;;22.80;53.70;;;;;;5032580;28;20398;-59
2021/06/11 05:27:53;;;;;;;4.40;2.40;;;22.80;54.00;;;;;;5033751;28;20411;-59
2021/06/11 05:30:19;;;;;;;6.90;2.50;;;22.80;54.60;;;;;;5032554;28;20391;-59
2021/06/11 05:32:46;;;;;;;6.80;2.70;;;22.80;54.80;;;;;;5033695;28;20465;-59
2021/06/11 05:35:12;;;;;;;4.15;2.30;;;22.80;54.80;;;;;;5033302;28;20387;-59
2021/06/11 05:37:38;;;;;;;4.65;2.30;;;22.80;54.60;;;;;;5033332;28;20388;-60
2021/06/11 05:40:05;;;;;;;4.03;2.50;;;22.80;55.50;;;;;;5032044;28;20468;-59
2021/06/11 05:42:31;;;;;;;4.72;2.35;;;22.90;55.20;;;;;;5048507;28;20421;-59
2021/06/11 05:44:57;;;;;;;4.50;1.90;;;22.90;55.10;;;;;;5033096;28;20407;-59
2021/06/11 05:47:22;;;;;;;5.87;2.40;;;22.90;54.20;;;;;;5033094;28;20393;-59
2021/06/11 05:49:48;;;;;;;3.88;2.20;;;22.90;54.50;;;;;;5033378;28;20386;-59
2021/06/11 05:52:13;;;;;;;4.87;2.37;;;22.90;54.00;;;;;;5033390;28;20739;-60
2021/06/11 05:54:39;;;;;;;7.70;2.90;;;22.90;53.60;;;;;;5033164;28;20446;-59
2021/06/11 05:57:05;;;;;;;8.70;2.92;;;22.90;53.30;;;;;;5032826;28;20395;-60
2021/06/11 05:59:31;;;;;;;8.73;2.60;;;22.90;53.30;;;;;;5033251;28;20387;-59
2021/06/11 06:01:56;;;;;;;8.40;2.88;;;22.90;53.40;;;;;;5033212;28;20430;-59
2021/06/11 06:04:22;;;;;;;13.40;2.80;;;22.90;53.50;;;;;;5033179;28;20387;-59
2021/06/11 06:06:48;;;;;;;5.75;2.42;;;22.80;53.20;;;;;;5033187;28;20402;-60
2021/06/11 06:09:13;;;;;;;5.60;2.42;;;22.90;53.50;;;;;;5032551;28;20419;-60
2021/06/11 06:11:39;;;;;;;5.47;2.40;;;22.90;53.10;;;;;;5032951;28;20391;-59
2021/06/11 06:14:05;;;;;;;5.93;2.40;;;22.90;53.20;;;;;;5031704;28;20395;-60
2021/06/11 06:16:31;;;;;;;5.23;2.30;;;22.90;53.00;;;;;;5032761;28;20486;-60
2021/06/11 06:18:57;;;;;;;3.80;2.10;;;22.90;53.00;;;;;;5047282;28;20402;-59
2021/06/11 06:21:24;;;;;;;3.97;2.33;;;22.90;53.00;;;;;;5032485;28;20795;-60
2021/06/11 06:23:50;;;;;;;3.70;2.20;;;22.90;52.90;;;;;;5032526;28;20379;-60
2021/06/11 06:26:15;;;;;;;3.47;2.10;;;22.90;52.90;;;;;;5032731;28;20387;-60
2021/06/11 06:28:41;;;;;;;3.42;2.10;;;22.90;52.90;;;;;;5032720;28;20383;-60
2021/06/11 06:31:07;;;;;;;4.03;2.53;;;22.90;53.00;;;;;;5032193;28;20395;-59
2021/06/11 06:33:33;;;;;;;4.72;2.08;;;22.90;52.90;;;;;;5032577;28;20387;-60
2021/06/11 06:35:58;;;;;;;3.08;1.88;;;22.90;52.90;;;;;;5032495;28;20397;-59
2021/06/11 06:38:25;;;;;;;4.20;1.90;;;22.90;53.00;;;;;;5032495;28;20379;-60
2021/06/11 06:40:58;;;;;;;3.20;2.00;;;22.90;53.00;;;;;;5032020;28;20866;-59
2021/06/11 06:43:24;;;;;;;3.85;2.20;;;22.90;52.90;;;;;;5032064;28;20399;-60
2021/06/11 06:45:50;;;;;;;3.20;2.10;;;22.90;52.90;;;;;;5031078;28;20740;-59
2021/06/11 06:48:15;;;;;;;4.78;2.13;;;22.90;52.90;;;;;;5032373;28;20828;-59
2021/06/11 06:50:41;;;;;;;4.20;2.10;;;22.90;53.00;;;;;;5032066;28;20391;-59
2021/06/11 06:53:08;;;;;;;4.47;2.20;;;22.90;52.90;;;;;;5031857;28;20945;-60
2021/06/11 06:55:34;;;;;;;2.38;1.85;;;22.90;52.90;;;;;;5032174;28;20423;-60
2021/06/11 06:58:00;;;;;;;2.80;2.00;;;22.90;52.80;;;;;;5032226;28;20531;-60
2021/06/11 07:00:26;;;;;;;3.20;1.90;;;22.90;52.70;;;;;;5032237;28;20919;-60
2021/06/11 07:02:51;;;;;;;3.47;1.87;;;22.90;52.80;;;;;;5031972;28;20784;-60
2021/06/11 07:05:17;;;;;;;2.95;1.90;;;22.90;52.60;;;;;;5031798;28;20387;-60
2021/06/11 07:07:43;;;;;;;2.53;1.95;;;22.90;52.70;;;;;;5032042;28;20391;-59
2021/06/11 07:10:09;;;;;;;3.60;1.93;;;22.90;52.70;;;;;;5032072;28;20456;-60
2021/06/11 07:12:36;;;;;;;2.83;2.00;;;22.90;52.60;;;;;;5031973;28;20427;-59
2021/06/11 07:15:03;;;;;;;2.95;1.92;;;22.90;52.50;;;;;;5031576;28;20391;-60
2021/06/11 07:17:29;;;;;;;2.35;1.83;;;22.90;52.60;;;;;;5031682;28;20441;-60
2021/06/11 07:19:55;;;;;;;4.05;2.10;;;22.90;52.50;;;;;;5031800;28;20388;-60
2021/06/11 07:22:21;;;;;;;3.65;2.10;;;22.90;52.50;;;;;;5031671;28;20431;-60
2021/06/11 07:24:47;;;;;;;3.35;2.20;;;22.90;52.70;;;;;;5031641;28;20744;-60
2021/06/11 07:27:13;;;;;;;3.95;2.08;;;22.90;52.70;;;;;;5031411;28;20414;-60
2021/06/11 07:29:45;;;;;;;2.70;2.15;;;22.90;52.50;;;;;;5031597;28;20387;-59
2021/06/11 07:32:12;;;;;;;3.00;2.20;;;22.90;52.60;;;;;;5031638;28;20748;-59
2021/06/11 07:34:40;;;;;;;3.92;2.10;;;23.00;52.40;;;;;;5030258;28;20410;-60
2021/06/11 07:37:06;;;;;;;3.60;2.00;;;23.00;52.80;;;;;;5030019;28;20439;-59
2021/06/11 07:39:34;;;;;;;3.25;2.22;;;23.00;52.60;;;;;;5031146;28;20386;-59
2021/06/11 07:42:00;;;;;;;3.70;2.13;;;23.00;52.70;;;;;;5031362;28;20422;-60
2021/06/11 07:44:26;;;;;;;4.07;2.20;;;23.00;52.90;;;;;;5031238;28;20409;-60
2021/06/11 07:46:51;;;;;;;4.97;2.10;;;23.00;53.00;;;;;;5031383;28;20395;-60
2021/06/11 07:49:17;;;;;;;3.10;1.90;;;23.00;53.00;;;;;;5031015;28;20859;-60
2021/06/11 07:51:43;;;;;;;3.13;2.10;;;23.10;53.00;;;;;;5025354;28;20397;-60
2021/06/11 07:54:09;;;;;;;3.83;2.00;;;23.10;52.90;;;;;;5011753;28;20873;-60
2021/06/11 07:56:37;;;;;;;2.80;2.10;;;23.10;53.00;;;;;;5011881;28;20396;-59
2021/06/11 07:59:03;;;;;;;3.55;1.92;;;23.10;52.90;;;;;;5011260;28;20861;-60
2021/06/11 08:01:31;;;;;;;3.30;2.00;;;23.10;52.70;;;;;;5011126;28;20435;-60
2021/06/11 08:03:56;;;;;;;3.70;1.95;;;23.10;52.70;;;;;;5011532;28;20388;-59
2021/06/11 08:06:22;;;;;;;2.27;1.90;;;23.20;52.60;;;;;;5011513;28;20389;-59
2021/06/11 08:08:48;;;;;;;4.18;1.85;;;23.20;52.60;;;;;;5011409;28;20425;-60
2021/06/11 08:11:14;;;;;;;3.58;2.17;;;23.20;52.40;;;;;;5010829;28;20416;-60
2021/06/11 08:13:40;;;;;;;3.75;1.90;;;23.20;52.40;;;;;;5011282;28;20769;-60
2021/06/11 08:16:05;;;;;;;3.47;2.03;;;23.30;52.20;;;;;;5011473;28;20393;-60
2021/06/11 08:18:31;;;;;;;2.90;2.17;;;23.30;52.10;;;;;;5011443;28;20393;-60
2021/06/11 08:20:57;;;;;;;2.53;1.80;;;23.30;52.00;;;;;;5011478;28;20404;-60
2021/06/11 08:23:22;;;;;;;2.33;1.97;;;23.40;51.90;;;;;;5010895;28;20449;-60
2021/06/11 08:25:48;;;;;;;2.60;1.67;;;23.40;51.80;;;;;;5011255;28;20400;-59
2021/06/11 08:28:14;;;;;;;2.50;1.87;;;23.40;51.70;;;;;;5011424;28;20794;-60
2021/06/11 08:30:39;;;;;;;2.28;1.80;;;23.40;51.60;;;;;;5011283;28;20407;-59
2021/06/11 08:33:06;;;;;;;2.45;1.80;;;23.40;51.50;;;;;;5011190;28;20397;-60
2021/06/11 08:35:33;;;;;;;2.70;1.63;;;23.50;51.50;;;;;;5011109;28;20385;-60
2021/06/11 08:37:59;;;;;;;2.00;1.60;;;23.50;51.40;;;;;;5011313;28;20443;-60
2021/06/11 08:40:26;;;;;;;2.40;1.80;;;23.50;51.40;;;;;;5010010;28;20765;-59
2021/06/11 08:42:52;;;;;;;2.70;1.70;;;23.50;51.20;;;;;;5014555;28;20416;-59
2021/06/11 08:45:18;;;;;;;2.60;1.80;;;23.50;51.20;;;;;;5014225;28;20404;-59
2021/06/11 08:47:48;;;;;;;2.05;1.80;;;23.60;51.20;;;;;;5014745;28;20488;-59
2021/06/11 08:50:17;;;;;;;2.13;1.70;;;23.50;51.10;;;;;;5014870;28;20416;-59
2021/06/11 08:52:43;;;;;;;2.25;1.65;;;23.60;51.10;;;;;;5014741;28;20389;-59
2021/06/11 08:55:09;;;;;;;1.92;1.60;;;23.60;51.10;;;;;;5014198;28;20393;-60
2021/06/11 08:57:35;;;;;;;2.03;1.70;;;23.60;50.90;;;;;;5014501;28;20443;-59
2021/06/11 09:00:01;;;;;;;2.80;1.60;;;23.70;50.90;;;;;;5014658;28;20385;-59
2021/06/11 09:02:27;;;;;;;1.90;1.60;;;23.70;50.80;;;;;;5014487;28;20515;-59
2021/06/11 09:04:55;;;;;;;1.80;1.50;;;23.70;50.70;;;;;;5014552;28;20457;-59
2021/06/11 09:07:29;;;;;;;1.80;1.60;;;23.70;50.70;;;;;;5013999;28;20400;-60
2021/06/11 09:10:07;;;;;;;1.90;1.50;;;23.70;50.60;;;;;;5014510;28;20408;-60
2021/06/11 09:12:33;;;;;;;2.40;1.52;;;23.70;50.50;;;;;;5014303;28;20417;-60
2021/06/11 09:15:05;;;;;;;2.38;1.58;;;23.80;50.50;;;;;;5014390;28;20427;-60
2021/06/11 09:17:47;;;;;;;2.55;1.70;;;23.80;50.40;;;;;;5014034;28;20722;-60
2021/06/11 09:20:40;;;;;;;1.77;1.48;;;23.80;50.40;;;;;;5014320;28;20400;-60
2021/06/11 09:23:08;;;;;;;1.67;1.48;;;23.80;50.30;;;;;;5014203;28;20407;-60
2021/06/11 09:25:41;;;;;;;1.98;1.55;;;23.80;50.30;;;;;;5013862;28;20396;-60
2021/06/11 09:28:08;;;;;;;2.42;1.67;;;23.90;50.30;;;;;;5014119;28;20400;-59
2021/06/11 09:30:50;;;;;;;1.52;1.40;;;23.90;50.30;;;;;;5014010;28;20451;-60
2021/06/11 09:33:18;;;;;;;2.40;1.50;;;23.90;50.20;;;;;;5013620;28;20885;-60
2021/06/11 09:35:54;;;;;;;1.60;1.40;;;24.00;50.10;;;;;;5013899;28;20454;-60
2021/06/11 09:38:28;;;;;;;1.83;1.60;;;24.00;50.00;;;;;;5013935;28;20385;-60
2021/06/11 09:40:57;;;;;;;1.73;1.40;;;24.00;50.00;;;;;;5013821;28;20401;-60
2021/06/11 09:43:23;;;;;;;1.93;1.50;;;24.00;49.90;;;;;;5011958;28;20403;-60
2021/06/11 09:46:04;;;;;;;2.25;1.50;;;24.10;49.90;;;;;;5013785;28;20899;-60
2021/06/11 09:48:39;;;;;;;1.98;1.63;;;24.10;49.80;;;;;;5013819;28;20396;-59
2021/06/11 09:51:23;;;;;;;1.65;1.38;;;24.10;49.70;;;;;;5013442;28;20389;-60
2021/06/11 09:53:49;;;;;;;1.70;1.50;;;24.20;49.80;;;;;;5011306;28;20885;-60
2021/06/11 09:56:22;;;;;;;1.80;1.60;;;24.20;49.60;;;;;;5013705;28;20396;-60
2021/06/11 09:58:48;;;;;;;1.90;1.50;;;24.20;49.50;;;;;;5013679;28;20412;-60
2021/06/11 10:01:14;;;;;;;1.83;1.48;;;24.30;49.50;;;;;;5013298;28;20412;-60
2021/06/11 10:03:49;;;;;;;1.67;1.50;;;24.30;49.30;;;;;;5013182;28;20543;-60
2021/06/11 10:06:16;;;;;;;2.38;1.60;;;24.40;49.20;;;;;;5013475;28;20405;-59
2021/06/11 10:08:45;;;;;;;3.05;1.70;;;24.40;49.40;;;;;;5013339;28;20793;-60
2021/06/11 10:11:13;;;;;;;2.13;1.58;;;24.50;49.20;;;;;;5012993;28;20420;-60
2021/06/11 10:13:43;;;;;;;2.10;1.60;;;24.50;49.30;;;;;;5012963;28;20935;-60
2021/06/11 10:16:13;;;;;;;3.37;1.63;;;24.60;49.30;;;;;;5013185;28;20393;-59
2021/06/11 10:18:39;;;;;;;4.38;1.95;;;24.60;49.40;;;;;;5013088;28;20388;-60
2021/06/11 10:21:06;;;;;;;4.72;1.67;;;24.60;49.20;;;;;;5012881;28;20408;-60
2021/06/11 10:23:34;;;;;;;4.50;1.90;;;24.60;49.80;;;;;;5012855;28;20436;-60
2021/06/11 10:26:02;;;;;;;3.97;1.60;;;24.70;49.30;;;;;;5012900;28;20400;-61
2021/06/11 10:28:29;;;;;;;4.45;2.00;;;24.70;49.20;;;;;;5012970;28;20409;-60
2021/06/11 10:30:58;;;;;;;4.90;2.00;;;24.80;49.10;;;;;;5013030;28;20399;-60
2021/06/11 10:33:54;;;;;;;4.30;2.03;;;24.80;49.10;;;;;;5012434;28;20483;-60
2021/06/11 10:36:30;;;;;;;4.50;1.70;;;24.80;49.10;;;;;;5012830;28;20393;-60
2021/06/11 10:39:12;;;;;;;3.53;1.90;;;24.80;49.20;;;;;;5013013;28;20404;-61
2021/06/11 10:41:54;;;;;;;2.95;1.60;;;24.80;49.00;;;;;;5012293;28;20598;-61
2021/06/11 10:44:52;;;;;;;4.50;1.70;;;24.90;48.90;;;;;;5014853;28;20488;-60
2021/06/11 10:47:18;;;;;;;5.32;1.90;;;24.80;48.90;;;;;;5012779;28;20451;-59
2021/06/11 10:49:59;;;;;;;3.53;1.85;;;24.90;49.00;;;;;;5012931;28;20757;-60
2021/06/11 10:52:50;;;;;;;6.68;1.65;;;24.90;49.10;;;;;;5012493;28;20403;-60
2021/06/11 10:55:19;;;;;;;6.43;1.98;;;24.90;49.30;;;;;;5012352;28;20385;-60
2021/06/11 10:58:10;;;;;;;3.10;1.77;;;24.90;49.20;;;;;;5011185;28;20397;-60
2021/06/11 11:00:37;;;;;;;3.45;1.70;;;24.90;49.10;;;;;;5012327;28;20440;-60
2021/06/11 11:03:05;;;;;;;4.35;1.70;;;25.00;49.60;;;;;;5012001;28;20919;-61
2021/06/11 11:05:39;;;;;;;4.65;1.63;;;25.10;49.00;;;;;;5011607;28;20389;-60
2021/06/11 11:08:07;;;;;;;3.10;1.60;;;25.20;49.10;;;;;;5012046;28;20399;-60
2021/06/11 11:10:40;;;;;;;3.63;1.90;;;25.30;49.10;;;;;;5012051;28;20404;-60
2021/06/11 11:13:07;;;;;;;3.20;1.70;;;25.30;49.10;;;;;;5012217;28;20393;-60
2021/06/11 11:15:35;;;;;;;4.22;1.80;;;25.30;49.00;;;;;;5011829;28;20418;-60
2021/06/11 11:18:10;;;;;;;3.28;1.55;;;25.40;48.90;;;;;;5010875;28;20897;-60
2021/06/11 11:20:38;;;;;;;3.80;1.80;;;25.50;48.90;;;;;;5011858;28;20900;-60
2021/06/11 11:23:09;;;;;;;2.15;1.60;;;25.50;48.80;;;;;;5011734;28;20417;-61
2021/06/11 11:25:36;;;;;;;6.18;1.80;;;25.50;48.80;;;;;;5011470;28;20476;-61
2021/06/11 11:28:03;;;;;;;6.23;1.93;;;25.40;48.90;;;;;;5011946;28;20877;-61
2021/06/11 11:30:29;;;;;;;7.03;1.90;;;25.40;49.00;;;;;;5011823;28;20901;-61
2021/06/11 11:32:59;;;;;;;5.38;1.88;;;25.60;49.00;;;;;;5011907;28;20389;-61
2021/06/11 11:35:28;;;;;;;7.65;2.15;;;25.60;48.80;;;;;;5011347;28;20393;-61
2021/06/11 11:37:55;;;;;;;3.10;1.70;;;25.70;48.70;;;;;;5011870;28;20396;-61
2021/06/11 11:40:23;;;;;;;5.30;1.65;;;25.80;48.60;;;;;;5011775;28;20404;-61
2021/06/11 11:42:49;;;;;;;5.60;1.90;;;25.90;48.50;;;;;;5011927;28;20512;-61
2021/06/11 11:45:15;;;;;;;5.80;1.63;;;25.90;48.40;;;;;;5011530;28;20495;-61
2021/06/11 11:47:43;;;;;;;2.90;1.70;;;26.00;48.30;;;;;;5011532;28;20466;-61
2021/06/11 11:50:09;;;;;;;5.35;1.65;;;26.00;48.30;;;;;;5011726;28;20416;-61
2021/06/11 11:52:35;;;;;;;3.87;1.47;;;26.10;48.30;;;;;;5011660;28;20474;-60
2021/06/11 11:55:01;;;;;;;4.63;1.58;;;26.10;48.40;;;;;;5011780;28;20389;-60
2021/06/11 11:57:27;;;;;;;5.30;1.67;;;26.10;48.30;;;;;;5011255;28;20400;-60
2021/06/11 11:59:53;;;;;;;7.78;1.75;;;26.00;48.40;;;;;;5011549;28;20777;-60
2021/06/11 12:02:19;;;;;;;7.67;1.90;;;26.00;48.10;;;;;;5011515;28;20420;-60
2021/06/11 12:04:45;;;;;;;6.90;1.80;;;26.10;47.90;;;;;;5010337;28;20745;-60
2021/06/11 12:07:11;;;;;;;5.45;1.80;;;26.20;47.60;;;;;;5010133;28;20757;-60
2021/06/11 12:09:36;;;;;;;7.20;1.50;;;26.20;47.60;;;;;;5011309;28;20475;-60
2021/06/11 12:12:02;;;;;;;8.25;1.77;;;26.20;47.40;;;;;;5011090;28;20462;-60
2021/06/11 12:14:28;;;;;;;5.93;1.90;;;26.30;47.80;;;;;;5011592;28;20426;-60
2021/06/11 12:16:54;;;;;;;4.35;1.67;;;26.30;47.70;;;;;;5013555;28;20393;-60
2021/06/11 12:19:20;;;;;;;7.65;1.90;;;26.30;47.40;;;;;;5015358;28;20389;-60
2021/06/11 12:21:46;;;;;;;4.60;1.70;;;26.30;47.30;;;;;;5014194;28;21015;-60
2021/06/11 12:24:11;;;;;;;6.35;1.80;;;26.30;47.10;;;;;;5015177;28;20479;-60
2021/06/11 12:26:37;;;;;;;6.97;2.00;;;26.40;47.10;;;;;;5014796;28;20792;-62
2021/06/11 12:29:03;;;;;;;5.28;1.67;;;26.20;48.00;;;;;;5014138;28;20420;-61
2021/06/11 12:31:30;;;;;;;4.55;1.65;;;25.90;47.60;;;;;;5013285;28;20411;-61
2021/06/11 12:33:56;;;;;;;2.78;1.67;;;25.80;47.80;;;;;;5012772;28;20397;-61
2021/06/11 12:36:22;;;;;;;3.30;1.60;;;25.60;48.10;;;;;;5012221;28;20884;-60
2021/06/11 12:38:48;;;;;;;4.03;1.80;;;25.50;48.20;;;;;;5012101;28;20401;-60
2021/06/11 12:41:15;;;;;;;3.08;1.60;;;25.40;48.30;;;;;;5012012;28;20801;-60
2021/06/11 12:46:27;;;;;;;4.47;1.80;;;25.30;48.60;;;;;;5011510;28;20388;-60
2021/06/11 12:48:54;;;;;;;3.22;1.75;;;25.30;48.60;;;;;;5012246;28;20384;-60
2021/06/11 12:51:22;;;;;;;3.50;1.70;;;25.30;48.70;;;;;;5012084;28;20404;-60
2021/06/11 12:53:47;;;;;;;1.90;1.55;;;25.20;48.80;;;;;;5012072;28;21101;-61
2021/06/11 12:56:15;;;;;;;2.93;1.60;;;25.20;48.80;;;;;;5012144;28;20432;-60